Time;durP1;ratioP1;P1;durP2;ratioP2;P2;SDS_P1;SDS_P2;PMS_P1;PMS_P2;Temp;Humidity;BMP_temperature;BMP_pressure;BME280_temperature;BME280_humidity;BME280_pressure;Samples;Min_cycle;Max_cycle;Signal;HPM_P1;HPM_P2
2023/04/28 00:00:35;;;;;;;29.00;11.50;;;;;;;;;;5039794;28;20041;-84
2023/04/28 00:03:14;;;;;;;30.45;11.13;;;;;;;;;;5035554;28;20423;-85
2023/04/28 00:05:40;;;;;;;32.58;11.50;;;;;;;;;;5034029;28;20075;-84
2023/04/28 00:08:05;;;;;;;32.78;12.00;;;;;;;;;;5045405;28;20037;-83
2023/04/28 00:10:44;;;;;;;31.10;11.98;;;;;;;;;;5037978;28;20438;-85
2023/04/28 00:13:10;;;;;;;30.73;10.85;;;;;;;;;;5042555;28;20489;-84
2023/04/28 00:15:35;;;;;;;26.58;12.18;;;;;;;;;;5046362;28;20072;-85
2023/04/28 00:18:14;;;;;;;24.95;11.20;;;;;;;;;;5037639;28;20053;-85
2023/04/28 00:20:39;;;;;;;32.65;11.27;;;;;;;;;;5039670;28;20041;-83
2023/04/28 00:23:05;;;;;;;35.65;11.32;;;;;;;;;;5042932;28;20376;-83
2023/04/28 00:25:44;;;;;;;33.33;11.65;;;;;;;;;;5044655;28;20029;-84
2023/04/28 00:28:09;;;;;;;30.77;11.43;;;;;;;;;;5047034;28;20087;-84
2023/04/28 00:30:35;;;;;;;35.22;11.82;;;;;;;;;;5043673;28;20049;-83
2023/04/28 00:33:13;;;;;;;33.20;11.18;;;;;;;;;;5035685;28;20032;-82
2023/04/28 00:35:40;;;;;;;26.95;10.80;;;;;;;;;;5044016;28;20082;-83
2023/04/28 00:38:05;;;;;;;33.13;10.48;;;;;;;;;;5035679;28;20028;-83
2023/04/28 00:40:45;;;;;;;33.50;11.15;;;;;;;;;;5040444;28;20488;-83
2023/04/28 00:43:10;;;;;;;28.10;10.60;;;;;;;;;;5039520;28;20037;-83
2023/04/28 00:45:36;;;;;;;62.25;11.77;;;;;;;;;;5038523;28;20421;-84
2023/04/28 00:48:15;;;;;;;36.97;11.95;;;;;;;;;;5044643;28;20025;-84
2023/04/28 00:50:42;;;;;;;39.53;10.93;;;;;;;;;;5048958;28;20051;-84
2023/04/28 00:53:07;;;;;;;39.90;10.23;;;;;;;;;;5050740;28;20037;-83
2023/04/28 00:55:46;;;;;;;33.92;10.35;;;;;;;;;;5049925;28;20037;-84
2023/04/28 00:58:11;;;;;;;38.95;10.30;;;;;;;;;;5035232;28;20500;-84
2023/04/28 01:00:37;;;;;;;27.48;9.85;;;;;;;;;;5051064;28;20037;-84
2023/04/28 01:03:15;;;;;;;25.25;8.80;;;;;;;;;;5041014;28;20021;-83
2023/04/28 01:05:40;;;;;;;34.58;9.00;;;;;;;;;;5025471;28;20048;-84
2023/04/28 01:08:06;;;;;;;26.95;8.73;;;;;;;;;;5040617;28;20033;-84
2023/04/28 01:10:49;;;;;;;29.20;8.57;;;;;;;;;;5035388;28;20116;-85
2023/04/28 01:13:14;;;;;;;27.53;8.73;;;;;;;;;;5039107;28;20051;-85
2023/04/28 01:15:46;;;;;;;26.38;9.02;;;;;;;;;;5047954;28;20107;-81
2023/04/28 01:18:18;;;;;;;25.67;9.25;;;;;;;;;;5037300;28;20045;-82
2023/04/28 01:20:44;;;;;;;28.52;9.77;;;;;;;;;;5042906;28;20045;-84
2023/04/28 01:23:16;;;;;;;26.70;10.43;;;;;;;;;;5051340;28;20182;-84
2023/04/28 01:25:49;;;;;;;43.30;8.73;;;;;;;;;;5044852;28;20040;-84
2023/04/28 01:28:15;;;;;;;28.90;8.48;;;;;;;;;;5037180;28;20049;-82
2023/04/28 01:30:46;;;;;;;24.33;9.20;;;;;;;;;;5038025;28;20037;-83
2023/04/28 01:33:18;;;;;;;16.98;8.23;;;;;;;;;;5041617;28;20068;-84
2023/04/28 01:35:43;;;;;;;27.98;8.43;;;;;;;;;;5043599;28;20163;-83
2023/04/28 01:38:15;;;;;;;30.30;9.23;;;;;;;;;;5042639;28;20443;-82
2023/04/28 01:40:47;;;;;;;36.05;10.02;;;;;;;;;;5039211;28;20037;-84
2023/04/28 01:43:12;;;;;;;30.23;9.55;;;;;;;;;;5041630;28;20462;-83
2023/04/28 01:45:44;;;;;;;31.50;8.88;;;;;;;;;;5037853;28;20120;-84
2023/04/28 01:48:16;;;;;;;31.30;9.23;;;;;;;;;;5036231;28;20083;-84
2023/04/28 01:50:41;;;;;;;31.75;9.27;;;;;;;;;;5042519;28;20036;-83
2023/04/28 01:53:13;;;;;;;29.13;9.65;;;;;;;;;;5041842;28;20109;-83
2023/04/28 01:55:45;;;;;;;30.05;9.60;;;;;;;;;;5041305;28;20040;-83
2023/04/28 01:58:10;;;;;;;32.67;10.07;;;;;;;;;;5032843;28;20043;-83
2023/04/28 02:00:42;;;;;;;20.70;8.23;;;;;;;;;;5041142;28;20120;-82
2023/04/28 02:03:14;;;;;;;26.90;8.88;;;;;;;;;;5040967;28;20055;-83
2023/04/28 02:05:39;;;;;;;24.23;8.43;;;;;;;;;;5036901;28;20091;-83
2023/04/28 02:08:11;;;;;;;33.72;8.60;;;;;;;;;;5044532;28;20037;-84
2023/04/28 02:10:43;;;;;;;28.25;8.60;;;;;;;;;;5038169;28;20033;-85
2023/04/28 02:13:09;;;;;;;27.67;9.07;;;;;;;;;;5045373;28;20486;-84
2023/04/28 02:15:42;;;;;;;24.30;8.65;;;;;;;;;;5044116;28;20032;-84
2023/04/28 02:18:14;;;;;;;21.92;8.18;;;;;;;;;;5037458;28;20516;-84
2023/04/28 02:20:39;;;;;;;23.25;7.88;;;;;;;;;;5031738;28;20433;-83
2023/04/28 02:23:11;;;;;;;28.63;8.23;;;;;;;;;;5036868;28;20116;-83
2023/04/28 02:25:43;;;;;;;21.27;7.60;;;;;;;;;;5047837;28;20075;-83
2023/04/28 02:28:08;;;;;;;28.65;8.27;;;;;;;;;;5050084;28;20511;-84
2023/04/28 02:30:40;;;;;;;28.40;9.05;;;;;;;;;;5045705;28;20057;-84
2023/04/28 02:33:12;;;;;;;29.80;8.48;;;;;;;;;;5042425;28;20041;-82
2023/04/28 02:35:37;;;;;;;32.30;10.05;;;;;;;;;;5038158;28;20507;-83
2023/04/28 02:38:09;;;;;;;29.85;9.15;;;;;;;;;;5050861;28;20025;-83
2023/04/28 02:40:41;;;;;;;32.10;9.57;;;;;;;;;;5041628;28;20040;-83
2023/04/28 02:43:06;;;;;;;37.30;10.18;;;;;;;;;;5037089;28;20033;-84
2023/04/28 02:45:39;;;;;;;34.95;10.60;;;;;;;;;;5037414;28;20032;-83
2023/04/28 02:48:11;;;;;;;47.03;11.07;;;;;;;;;;5038561;28;20095;-83
2023/04/28 02:50:36;;;;;;;32.20;9.65;;;;;;;;;;5039302;28;20493;-84
2023/04/28 02:53:08;;;;;;;35.97;10.90;;;;;;;;;;5047392;28;20037;-83
2023/04/28 02:55:40;;;;;;;37.63;10.73;;;;;;;;;;5037193;28;20044;-83
2023/04/28 02:58:05;;;;;;;30.92;9.65;;;;;;;;;;5044996;28;20358;-83
2023/04/28 03:00:37;;;;;;;36.58;10.13;;;;;;;;;;5040081;28;20037;-84
2023/04/28 03:03:09;;;;;;;40.03;10.48;;;;;;;;;;5037321;28;20049;-84
2023/04/28 03:05:34;;;;;;;33.22;9.43;;;;;;;;;;5027977;28;20041;-83
2023/04/28 03:08:06;;;;;;;30.02;9.85;;;;;;;;;;5029833;28;20378;-84
2023/04/28 03:10:38;;;;;;;28.25;8.55;;;;;;;;;;5043124;28;20400;-85
2023/04/28 03:13:03;;;;;;;38.72;9.90;;;;;;;;;;5030260;28;20033;-84
2023/04/28 03:15:35;;;;;;;28.15;8.93;;;;;;;;;;5036417;28;20037;-84
2023/04/28 03:18:07;;;;;;;31.33;9.18;;;;;;;;;;5036787;28;20037;-81
2023/04/28 03:20:32;;;;;;;28.50;9.27;;;;;;;;;;5032368;28;20059;-85
2023/04/28 03:23:04;;;;;;;27.83;8.75;;;;;;;;;;5040325;28;20516;-82
2023/04/28 03:25:36;;;;;;;25.05;8.07;;;;;;;;;;5043757;28;20116;-84
2023/04/28 03:28:01;;;;;;;20.65;5.82;;;;;;;;;;5038522;28;20052;-82
2023/04/28 03:30:33;;;;;;;16.90;5.78;;;;;;;;;;5044049;28;20536;-85
2023/04/28 03:33:06;;;;;;;11.55;4.38;;;;;;;;;;5034021;28;20052;-83
2023/04/28 03:35:31;;;;;;;11.65;3.80;;;;;;;;;;5040391;28;20037;-83
2023/04/28 03:38:03;;;;;;;5.88;2.58;;;;;;;;;;5044502;28;20025;-84
2023/04/28 03:40:35;;;;;;;4.63;2.67;;;;;;;;;;5040272;28;20120;-83
2023/04/28 03:43:01;;;;;;;6.22;2.33;;;;;;;;;;5039446;28;20033;-83
2023/04/28 03:45:33;;;;;;;4.43;2.55;;;;;;;;;;5046026;28;20111;-84
2023/04/28 03:48:05;;;;;;;7.45;2.42;;;;;;;;;;5037398;28;20048;-83
2023/04/28 03:50:31;;;;;;;4.55;1.77;;;;;;;;;;5039448;28;20144;-84
2023/04/28 03:53:03;;;;;;;5.60;2.20;;;;;;;;;;5051165;28;20479;-84
2023/04/28 03:55:35;;;;;;;5.07;2.28;;;;;;;;;;5037511;28;20034;-84
2023/04/28 03:58:00;;;;;;;3.03;1.63;;;;;;;;;;5039381;28;20038;-84
2023/04/28 04:00:32;;;;;;;3.10;1.60;;;;;;;;;;5045806;28;20363;-85
2023/04/28 04:03:04;;;;;;;4.18;1.15;;;;;;;;;;5039044;28;20049;-84
2023/04/28 04:05:29;;;;;;;1.73;0.95;;;;;;;;;;5035951;28;20060;-84
2023/04/28 04:08:01;;;;;;;1.50;0.80;;;;;;;;;;5036576;28;20457;-85
2023/04/28 04:10:33;;;;;;;1.42;0.80;;;;;;;;;;5049478;28;20034;-84
2023/04/28 04:12:58;;;;;;;1.25;0.80;;;;;;;;;;5041966;28;20465;-84
2023/04/28 04:15:30;;;;;;;1.50;0.70;;;;;;;;;;5044907;28;20037;-86
2023/04/28 04:18:02;;;;;;;1.30;0.80;;;;;;;;;;5041438;28;20392;-85
2023/04/28 04:20:27;;;;;;;1.05;0.70;;;;;;;;;;5036930;28;20037;-84
2023/04/28 04:23:00;;;;;;;2.63;0.70;;;;;;;;;;5040799;28;20461;-85
2023/04/28 04:25:32;;;;;;;1.00;0.60;;;;;;;;;;5053275;28;20041;-85
2023/04/28 04:27:58;;;;;;;1.58;0.90;;;;;;;;;;5028666;28;20067;-84
2023/04/28 04:30:30;;;;;;;1.58;0.82;;;;;;;;;;5040782;28;20028;-84
2023/04/28 04:33:02;;;;;;;1.80;0.90;;;;;;;;;;5042266;28;20076;-85
2023/04/28 04:35:27;;;;;;;1.30;0.70;;;;;;;;;;5041895;28;20481;-85
2023/04/28 04:38:00;;;;;;;1.98;0.93;;;;;;;;;;5037197;28;20036;-86
2023/04/28 04:40:32;;;;;;;1.63;1.00;;;;;;;;;;5022312;28;20059;-85
2023/04/28 04:42:57;;;;;;;1.60;0.90;;;;;;;;;;5054419;28;20045;-86
2023/04/28 04:45:29;;;;;;;1.52;0.90;;;;;;;;;;5043233;28;20041;-85
2023/04/28 04:48:01;;;;;;;2.50;1.40;;;;;;;;;;5032793;28;20033;-84
2023/04/28 04:50:26;;;;;;;1.67;1.10;;;;;;;;;;5048643;28;20045;-84
2023/04/28 04:52:58;;;;;;;2.63;1.48;;;;;;;;;;5044067;28;20362;-85
2023/04/28 04:55:30;;;;;;;2.00;1.20;;;;;;;;;;5041483;28;20037;-85
2023/04/28 04:57:55;;;;;;;2.15;1.30;;;;;;;;;;5046691;28;20473;-84
2023/04/28 05:00:28;;;;;;;2.70;1.65;;;;;;;;;;5048122;28;20029;-85
2023/04/28 05:03:00;;;;;;;3.13;2.00;;;;;;;;;;5038653;28;20533;-85
2023/04/28 05:05:25;;;;;;;3.25;1.60;;;;;;;;;;5036341;28;20385;-83
2023/04/28 05:07:57;;;;;;;4.60;1.77;;;;;;;;;;5034006;28;20120;-85
2023/04/28 05:10:30;;;;;;;3.15;1.90;;;;;;;;;;5041788;28;20128;-85
2023/04/28 05:12:55;;;;;;;3.95;2.42;;;;;;;;;;5031941;28;20462;-84
2023/04/28 05:15:27;;;;;;;3.03;2.10;;;;;;;;;;5044583;28;20041;-84
2023/04/28 05:17:59;;;;;;;2.85;2.08;;;;;;;;;;5041484;28;20094;-85
2023/04/28 05:20:24;;;;;;;3.40;2.20;;;;;;;;;;5043352;28;20124;-85
2023/04/28 05:22:56;;;;;;;4.95;2.15;;;;;;;;;;5042815;28;20117;-85
2023/04/28 05:25:28;;;;;;;2.80;2.08;;;;;;;;;;5042516;28;20496;-84
2023/04/28 05:27:54;;;;;;;2.67;1.90;;;;;;;;;;5035040;28;20049;-85
2023/04/28 05:30:26;;;;;;;3.53;1.70;;;;;;;;;;5038836;28;20028;-85
2023/04/28 05:32:59;;;;;;;3.10;1.80;;;;;;;;;;5035182;28;20048;-84
2023/04/28 05:35:25;;;;;;;6.47;1.80;;;;;;;;;;5041716;28;20041;-84
2023/04/28 05:37:57;;;;;;;6.18;1.52;;;;;;;;;;5038668;28;20512;-85
2023/04/28 05:40:29;;;;;;;2.97;1.67;;;;;;;;;;5035565;28;20041;-85
2023/04/28 05:42:55;;;;;;;2.92;1.75;;;;;;;;;;5034623;28;20042;-85
2023/04/28 05:45:26;;;;;;;2.45;1.67;;;;;;;;;;5047200;28;20025;-85
2023/04/28 05:47:58;;;;;;;2.22;1.50;;;;;;;;;;5050672;28;20044;-85
2023/04/28 05:50:23;;;;;;;2.85;1.70;;;;;;;;;;5047435;28;20075;-85
2023/04/28 05:52:55;;;;;;;4.75;2.95;;;;;;;;;;5050347;28;20033;-85
2023/04/28 05:55:27;;;;;;;4.32;2.88;;;;;;;;;;5049367;28;20048;-84
2023/04/28 05:57:53;;;;;;;2.88;1.70;;;;;;;;;;5022553;28;20038;-84
2023/04/28 06:00:25;;;;;;;4.20;1.45;;;;;;;;;;5035388;28;20514;-85
2023/04/28 06:02:57;;;;;;;2.85;1.67;;;;;;;;;;5035952;28;20128;-83
2023/04/28 06:05:22;;;;;;;3.63;1.75;;;;;;;;;;5043324;28;20037;-84
2023/04/28 06:07:54;;;;;;;5.90;1.35;;;;;;;;;;5035719;28;20082;-85
2023/04/28 06:10:27;;;;;;;2.10;1.30;;;;;;;;;;5039845;28;20042;-86
2023/04/28 06:12:52;;;;;;;2.28;1.30;;;;;;;;;;5032744;28;20037;-86
2023/04/28 06:15:24;;;;;;;2.00;1.35;;;;;;;;;;5033847;28;20396;-87
2023/04/28 06:17:56;;;;;;;2.90;1.80;;;;;;;;;;5034231;28;20049;-86
2023/04/28 06:20:21;;;;;;;3.20;1.67;;;;;;;;;;5052798;28;20048;-86
2023/04/28 06:22:53;;;;;;;3.83;1.70;;;;;;;;;;5040677;28;20045;-87
2023/04/28 06:25:25;;;;;;;2.78;1.70;;;;;;;;;;5054408;28;20385;-86
2023/04/28 06:27:50;;;;;;;3.05;1.38;;;;;;;;;;5038044;28;20039;-87
2023/04/28 06:30:23;;;;;;;2.55;1.30;;;;;;;;;;5022082;28;20125;-87
2023/04/28 06:32:56;;;;;;;1.87;1.20;;;;;;;;;;5035775;28;20414;-87
2023/04/28 06:35:22;;;;;;;2.55;1.30;;;;;;;;;;5029499;28;20050;-87
2023/04/28 06:37:54;;;;;;;2.50;1.50;;;;;;;;;;5048523;28;20534;-87
2023/04/28 06:40:26;;;;;;;2.17;1.40;;;;;;;;;;5043224;28;20033;-85
2023/04/28 06:42:51;;;;;;;2.88;1.40;;;;;;;;;;5040303;28;20045;-86
2023/04/28 06:45:23;;;;;;;2.75;1.48;;;;;;;;;;5040778;28;20518;-86
2023/04/28 06:47:55;;;;;;;3.75;2.40;;;;;;;;;;5040037;28;20041;-86
2023/04/28 06:50:22;;;;;;;4.30;2.20;;;;;;;;;;5037775;28;20049;-86
2023/04/28 06:52:53;;;;;;;5.50;2.20;;;;;;;;;;5033419;28;20029;-86
2023/04/28 06:55:25;;;;;;;4.53;2.40;;;;;;;;;;5038412;28;20041;-87
2023/04/28 06:57:50;;;;;;;3.83;2.35;;;;;;;;;;5041600;28;20039;-85
2023/04/28 07:00:22;;;;;;;2.83;2.10;;;;;;;;;;5035491;28;20029;-87
2023/04/28 07:02:54;;;;;;;3.28;1.90;;;;;;;;;;5033645;28;20042;-85
2023/04/28 07:05:19;;;;;;;5.53;2.40;;;;;;;;;;5032937;28;20168;-86
2023/04/28 07:07:51;;;;;;;6.10;2.50;;;;;;;;;;5036187;28;20108;-86
2023/04/28 07:10:23;;;;;;;3.15;2.10;;;;;;;;;;5035314;28;20073;-87
2023/04/28 07:12:50;;;;;;;4.60;2.38;;;;;;;;;;5043314;28;20041;-87
2023/04/28 07:15:23;;;;;;;4.30;2.60;;;;;;;;;;5023066;28;20034;-87
2023/04/28 07:17:55;;;;;;;6.43;3.50;;;;;;;;;;5042423;28;20036;-87
2023/04/28 07:20:20;;;;;;;4.90;3.40;;;;;;;;;;5037618;28;20123;-87
2023/04/28 07:22:52;;;;;;;5.57;3.10;;;;;;;;;;5041762;28;20053;-87
2023/04/28 07:25:24;;;;;;;7.35;3.83;;;;;;;;;;5042719;28;20055;-87
2023/04/28 07:27:49;;;;;;;5.03;3.70;;;;;;;;;;5030527;28;20237;-88
2023/04/28 07:30:21;;;;;;;4.53;3.00;;;;;;;;;;5039245;28;20528;-88
2023/04/28 07:32:53;;;;;;;5.45;3.20;;;;;;;;;;5027770;28;20478;-87
2023/04/28 07:35:18;;;;;;;4.40;2.72;;;;;;;;;;5038944;28;20472;-87
2023/04/28 07:37:50;;;;;;;4.75;2.58;;;;;;;;;;5039309;28;20060;-87
2023/04/28 07:40:23;;;;;;;5.55;2.55;;;;;;;;;;5039801;28;20401;-86
2023/04/28 07:42:48;;;;;;;4.55;2.67;;;;;;;;;;5036009;28;20052;-84
2023/04/28 07:45:20;;;;;;;5.50;2.67;;;;;;;;;;5044338;28;20116;-86
2023/04/28 07:47:52;;;;;;;3.30;2.28;;;;;;;;;;5050297;28;20055;-87
2023/04/28 07:50:17;;;;;;;5.18;2.90;;;;;;;;;;5041825;28;20111;-86
2023/04/28 07:52:49;;;;;;;6.65;2.28;;;;;;;;;;5046279;28;20033;-87
2023/04/28 07:55:21;;;;;;;4.20;2.40;;;;;;;;;;5049640;28;20528;-87
2023/04/28 07:57:46;;;;;;;3.42;2.28;;;;;;;;;;5052999;28;20040;-87
2023/04/28 08:00:18;;;;;;;6.05;1.80;;;;;;;;;;5049581;28;20393;-89
2023/04/28 08:02:50;;;;;;;6.18;1.75;;;;;;;;;;5036441;28;20065;-85
2023/04/28 08:05:15;;;;;;;3.15;1.73;;;;;;;;;;5046497;28;20041;-87
2023/04/28 08:07:47;;;;;;;1.98;0.95;;;;;;;;;;5054068;28;20464;-86
2023/04/28 08:10:19;;;;;;;2.78;1.40;;;;;;;;;;5022803;28;20049;-87
2023/04/28 08:12:44;;;;;;;2.67;1.42;;;;;;;;;;5032000;28;20435;-86
2023/04/28 08:15:16;;;;;;;3.10;1.70;;;;;;;;;;5039414;28;20037;-85
2023/04/28 08:17:48;;;;;;;2.85;1.42;;;;;;;;;;5043295;28;20052;-87
2023/04/28 08:20:14;;;;;;;3.25;1.67;;;;;;;;;;5038166;28;20048;-83
2023/04/28 08:22:46;;;;;;;3.00;1.10;;;;;;;;;;5049839;28;20033;-86
2023/04/28 08:25:18;;;;;;;1.08;0.52;;;;;;;;;;5032904;28;20443;-87
2023/04/28 08:27:44;;;;;;;0.60;0.57;;;;;;;;;;5047668;28;20087;-86
2023/04/28 08:30:15;;;;;;;0.47;0.40;;;;;;;;;;5042891;28;20048;-80
2023/04/28 08:32:47;;;;;;;0.80;0.60;;;;;;;;;;5033777;28;20111;-85
2023/04/28 08:35:14;;;;;;;0.40;0.40;;;;;;;;;;5045383;28;20044;-84
2023/04/28 08:37:48;;;;;;;0.35;0.32;;;;;;;;;;5046653;28;20029;-86
2023/04/28 08:40:30;;;;;;;0.45;0.40;;;;;;;;;;5035504;28;20057;-84
2023/04/28 08:43:02;;;;;;;0.60;0.40;;;;;;;;;;5031329;28;20045;-85
2023/04/28 08:45:35;;;;;;;0.40;0.40;;;;;;;;;;5039117;28;20067;-87
2023/04/28 08:48:02;;;;;;;1.05;0.40;;;;;;;;;;5035160;28;20048;-86
2023/04/28 08:50:35;;;;;;;0.70;0.30;;;;;;;;;;5026624;28;21550;-82
2023/04/28 08:53:09;;;;;;;0.45;0.32;;;;;;;;;;5027026;28;20077;-87
2023/04/28 08:55:42;;;;;;;0.25;0.25;;;;;;;;;;5034120;28;20045;-87
2023/04/28 08:58:08;;;;;;;;;;;;;;;;;;5034360;28;20041;-86
2023/04/28 09:00:42;;;;;;;0.30;0.30;;;;;;;;;;5027704;28;19913;-86
2023/04/28 09:03:14;;;;;;;1.58;0.60;;;;;;;;;;5032543;28;20049;-85
2023/04/28 09:05:39;;;;;;;0.50;0.50;;;;;;;;;;5041570;28;20067;-83
2023/04/28 09:08:11;;;;;;;0.77;0.60;;;;;;;;;;5032169;28;20077;-85
2023/04/28 09:10:43;;;;;;;0.60;0.60;;;;;;;;;;5032896;28;20053;-84
2023/04/28 09:13:08;;;;;;;0.50;0.50;;;;;;;;;;5032486;28;20095;-83
2023/04/28 09:15:44;;;;;;;1.05;0.95;;;;;;;;;;5032069;28;20061;-82
2023/04/28 09:18:16;;;;;;;0.60;0.60;;;;;;;;;;5038872;28;20485;-85
2023/04/28 09:20:43;;;;;;;3.60;2.27;;;;;;;;;;5033589;28;20065;-84
2023/04/28 09:23:54;;;;;;;2.25;1.00;;;;;;;;;;5027388;28;20037;-85
2023/04/28 09:26:19;;;;;;;1.92;1.83;;;;;;;;;;5044598;28;20498;-84
2023/04/28 09:28:56;;;;;;;3.33;0.90;;;;;;;;;;5043524;28;20162;-84
2023/04/28 09:31:29;;;;;;;3.85;1.30;;;;;;;;;;5046442;28;20029;-83
2023/04/28 09:34:02;;;;;;;2.13;2.00;;;;;;;;;;5031160;28;20049;-84
2023/04/28 09:36:30;;;;;;;;;;;;;;;;;;5028111;28;20087;-85
2023/04/28 09:39:05;;;;;;;11.32;1.75;;;;;;;;;;5044241;28;19930;-85
2023/04/28 09:41:39;;;;;;;1.42;1.33;;;;;;;;;;5041333;28;20038;-84
2023/04/28 09:44:24;;;;;;;0.45;0.40;;;;;;;;;;5038041;28;20056;-83
2023/04/28 09:46:57;;;;;;;1.42;1.10;;;;;;;;;;5038393;28;20558;-83
2023/04/28 09:49:22;;;;;;;0.75;0.70;;;;;;;;;;5030537;28;20072;-85
2023/04/28 09:51:54;;;;;;;1.25;0.60;;;;;;;;;;5032611;28;20024;-85
2023/04/28 09:54:27;;;;;;;0.60;0.60;;;;;;;;;;5036311;28;20044;-84
2023/04/28 09:56:53;;;;;;;0.50;0.50;;;;;;;;;;5027495;28;20048;-83
2023/04/28 09:59:25;;;;;;;0.88;0.80;;;;;;;;;;5033970;28;20408;-79
2023/04/28 10:01:57;;;;;;;;;;;;;;;;;;5039167;28;20485;-84
2023/04/28 10:04:22;;;;;;;1.35;0.50;;;;;;;;;;5039841;28;19924;-81
2023/04/28 10:06:55;;;;;;;0.73;0.50;;;;;;;;;;5058174;28;20033;-83
2023/04/28 10:09:27;;;;;;;;;;;;;;;;;;5036973;28;20072;-84
2023/04/28 10:11:53;;;;;;;0.90;0.60;;;;;;;;;;5034313;28;19951;-82
2023/04/28 10:14:25;;;;;;;4.78;1.00;;;;;;;;;;5062987;28;20122;-82
2023/04/28 10:16:58;;;;;;;;;;;;;;;;;;5049196;28;20512;-84
2023/04/28 10:19:23;;;;;;;;;;;;;;;;;;5030678;28;19924;-83
2023/04/28 10:22:08;;;;;;;0.40;0.40;;;;;;;;;;5041942;28;20284;-82
2023/04/28 10:25:11;;;;;;;0.60;0.60;;;;;;;;;;5031177;28;20118;-78
2023/04/28 10:27:45;;;;;;;0.75;0.70;;;;;;;;;;5036301;28;20497;-82
2023/04/28 10:30:18;;;;;;;0.30;0.30;;;;;;;;;;5024215;28;20045;-82
2023/04/28 10:32:47;;;;;;;0.75;0.50;;;;;;;;;;5035248;28;20038;-83
2023/04/28 10:35:39;;;;;;;0.68;0.55;;;;;;;;;;5032370;28;20367;-81
2023/04/28 10:38:19;;;;;;;0.30;0.30;;;;;;;;;;5035059;28;20120;-83
2023/04/28 10:41:02;;;;;;;0.32;0.30;;;;;;;;;;5046014;28;20459;-78
2023/04/28 10:43:36;;;;;;;0.20;0.20;;;;;;;;;;5041464;28;20090;-82
2023/04/28 10:46:15;;;;;;;0.25;0.25;;;;;;;;;;5036772;28;20036;-83
2023/04/28 10:48:46;;;;;;;0.45;0.28;;;;;;;;;;5029472;28;20049;-83
2023/04/28 10:51:26;;;;;;;0.75;0.45;;;;;;;;;;5026695;28;20053;-83
2023/04/28 10:53:51;;;;;;;0.30;0.30;;;;;;;;;;5027778;28;20447;-83
2023/04/28 10:56:34;;;;;;;0.30;0.30;;;;;;;;;;5028930;28;20060;-82
2023/04/28 10:58:59;;;;;;;0.30;0.25;;;;;;;;;;5042697;28;20100;-84
2023/04/28 11:01:30;;;;;;;0.40;0.40;;;;;;;;;;5039912;28;20443;-84
2023/04/28 11:04:16;;;;;;;0.90;0.30;;;;;;;;;;5059285;28;20083;-85
2023/04/28 11:06:43;;;;;;;0.22;0.22;;;;;;;;;;5039973;28;20063;-84
2023/04/28 11:09:21;;;;;;;0.20;0.20;;;;;;;;;;5030671;28;20038;-83
2023/04/28 11:11:58;;;;;;;0.30;0.30;;;;;;;;;;5041425;28;20548;-84
2023/04/28 11:14:41;;;;;;;1.98;0.43;;;;;;;;;;5039020;28;20095;-82
2023/04/28 11:17:07;;;;;;;0.68;0.40;;;;;;;;;;5020038;28;20048;-84
2023/04/28 11:19:50;;;;;;;0.30;0.30;;;;;;;;;;5033176;28;20038;-82
2023/04/28 11:22:18;;;;;;;0.55;0.40;;;;;;;;;;5014507;28;20631;-82
2023/04/28 11:25:03;;;;;;;0.35;0.35;;;;;;;;;;5035607;28;20456;-82
2023/04/28 11:27:31;;;;;;;0.80;0.50;;;;;;;;;;5040123;28;20041;-81
2023/04/28 11:30:04;;;;;;;0.50;0.40;;;;;;;;;;5030548;28;20614;-81
2023/04/28 11:32:40;;;;;;;0.63;0.43;;;;;;;;;;5029820;28;20052;-82
2023/04/28 11:35:12;;;;;;;0.35;0.32;;;;;;;;;;5031927;28;20091;-82
2023/04/28 11:37:37;;;;;;;2.03;0.40;;;;;;;;;;5028567;28;20044;-83
2023/04/28 11:40:17;;;;;;;0.30;0.30;;;;;;;;;;5029778;28;20033;-82
2023/04/28 11:42:49;;;;;;;1.15;0.40;;;;;;;;;;5040207;28;20087;-82
2023/04/28 11:45:15;;;;;;;0.52;0.40;;;;;;;;;;5032164;28;20068;-82
2023/04/28 11:47:47;;;;;;;0.57;0.50;;;;;;;;;;5033474;28;20063;-81
2023/04/28 11:50:35;;;;;;;0.40;0.40;;;;;;;;;;5037162;28;20095;-82
2023/04/28 11:53:07;;;;;;;0.93;0.40;;;;;;;;;;5013418;28;20040;-81
2023/04/28 11:55:39;;;;;;;0.35;0.35;;;;;;;;;;5033006;28;20447;-81
2023/04/28 11:58:27;;;;;;;0.70;0.40;;;;;;;;;;5037635;28;20048;-81
2023/04/28 12:01:14;;;;;;;0.80;0.45;;;;;;;;;;5038272;28;20049;-81
2023/04/28 12:03:53;;;;;;;0.90;0.43;;;;;;;;;;5028184;28;20034;-80
2023/04/28 12:06:25;;;;;;;0.30;0.30;;;;;;;;;;5016551;28;20039;-81
2023/04/28 12:08:51;;;;;;;0.77;0.40;;;;;;;;;;5044270;28;20367;-81
2023/04/28 12:11:23;;;;;;;0.60;0.40;;;;;;;;;;5027567;28;20079;-81
2023/04/28 12:14:02;;;;;;;0.30;0.30;;;;;;;;;;5039354;28;20037;-81
2023/04/28 12:16:50;;;;;;;0.40;0.32;;;;;;;;;;5040762;28;20436;-80
2023/04/28 12:19:22;;;;;;;0.40;0.40;;;;;;;;;;5035409;28;20045;-80
2023/04/28 12:22:09;;;;;;;1.42;0.40;;;;;;;;;;5035702;28;20116;-81
2023/04/28 12:24:42;;;;;;;0.40;0.40;;;;;;;;;;5032336;28;20535;-79
2023/04/28 12:27:25;;;;;;;0.43;0.30;;;;;;;;;;5035011;28;20066;-80
2023/04/28 12:29:57;;;;;;;0.20;0.20;;;;;;;;;;5037596;28;20770;-81
2023/04/28 12:32:46;;;;;;;1.10;0.40;;;;;;;;;;5030146;28;20124;-81
2023/04/28 12:35:24;;;;;;;1.63;0.40;;;;;;;;;;5034520;28;20099;-81
2023/04/28 12:37:57;;;;;;;0.50;0.50;;;;;;;;;;5035798;28;20044;-81
2023/04/28 12:40:30;;;;;;;0.60;0.40;;;;;;;;;;5033390;28;20041;-82
2023/04/28 12:42:55;;;;;;;0.43;0.30;;;;;;;;;;5040671;28;20120;-81
2023/04/28 12:45:29;;;;;;;0.63;0.40;;;;;;;;;;5034271;28;20562;-81
2023/04/28 12:48:00;;;;;;;0.47;0.40;;;;;;;;;;5034204;28;20045;-81
2023/04/28 12:50:28;;;;;;;0.30;0.30;;;;;;;;;;5037946;28;20057;-80
2023/04/28 12:53:00;;;;;;;0.95;0.45;;;;;;;;;;5053333;28;20037;-81
2023/04/28 12:55:32;;;;;;;0.80;0.50;;;;;;;;;;5034445;28;21017;-82
2023/04/28 12:57:58;;;;;;;0.75;0.40;;;;;;;;;;5036649;28;20112;-81
2023/04/28 13:00:30;;;;;;;0.63;0.50;;;;;;;;;;5037997;28;20123;-81
2023/04/28 13:03:02;;;;;;;1.45;0.50;;;;;;;;;;5039916;28;20071;-81
2023/04/28 13:05:28;;;;;;;1.00;0.40;;;;;;;;;;5040136;28;20038;-81
2023/04/28 13:08:00;;;;;;;1.25;0.52;;;;;;;;;;5040181;28;20040;-82
2023/04/28 13:10:32;;;;;;;0.43;0.40;;;;;;;;;;5039721;28;20094;-82
2023/04/28 13:12:57;;;;;;;0.40;0.40;;;;;;;;;;5033455;28;20069;-81
2023/04/28 13:15:29;;;;;;;0.82;0.32;;;;;;;;;;5036558;28;20057;-81
2023/04/28 13:18:02;;;;;;;0.70;0.40;;;;;;;;;;5038203;28;20045;-82
2023/04/28 13:20:27;;;;;;;0.40;0.40;;;;;;;;;;5048220;28;20057;-79
2023/04/28 13:22:59;;;;;;;0.77;0.50;;;;;;;;;;5034500;28;20079;-82
2023/04/28 13:25:31;;;;;;;1.00;0.60;;;;;;;;;;5045399;28;20044;-81
2023/04/28 13:27:56;;;;;;;1.35;0.55;;;;;;;;;;5048911;28;20541;-82
2023/04/28 13:30:28;;;;;;;1.45;0.65;;;;;;;;;;5038343;28;20025;-81
2023/04/28 13:33:01;;;;;;;3.03;0.50;;;;;;;;;;5021946;28;20091;-81
2023/04/28 13:35:26;;;;;;;1.20;0.60;;;;;;;;;;5032693;28;20037;-80
2023/04/28 13:38:01;;;;;;;0.45;0.40;;;;;;;;;;5032730;28;20045;-82
2023/04/28 13:40:33;;;;;;;0.90;0.50;;;;;;;;;;5035783;28;20033;-81
2023/04/28 13:43:05;;;;;;;1.55;0.60;;;;;;;;;;5048509;28;20512;-81
2023/04/28 13:45:30;;;;;;;0.40;0.40;;;;;;;;;;5024684;28;20092;-80
2023/04/28 13:48:02;;;;;;;0.55;0.45;;;;;;;;;;5036650;28;20033;-81
2023/04/28 13:50:34;;;;;;;0.40;0.40;;;;;;;;;;5034891;28;20052;-81
2023/04/28 13:52:59;;;;;;;1.23;0.60;;;;;;;;;;5037225;28;20091;-82
2023/04/28 13:55:31;;;;;;;0.70;0.40;;;;;;;;;;5030525;28;20046;-82
2023/04/28 13:58:06;;;;;;;0.65;0.50;;;;;;;;;;5031819;28;20083;-82
2023/04/28 14:00:38;;;;;;;0.50;0.40;;;;;;;;;;5032697;28;20045;-80
2023/04/28 14:03:10;;;;;;;0.35;0.35;;;;;;;;;;5042813;28;20404;-81
2023/04/28 14:05:36;;;;;;;0.50;0.40;;;;;;;;;;5032443;28;20133;-81
2023/04/28 14:08:09;;;;;;;0.60;0.40;;;;;;;;;;5041632;28;20119;-79
2023/04/28 14:10:41;;;;;;;0.65;0.50;;;;;;;;;;5047954;28;20037;-81
2023/04/28 14:13:06;;;;;;;0.73;0.43;;;;;;;;;;5045639;28;20045;-81
2023/04/28 14:15:39;;;;;;;2.92;0.40;;;;;;;;;;5044437;28;20928;-80
2023/04/28 14:18:11;;;;;;;1.55;0.40;;;;;;;;;;5044740;28;20048;-79
2023/04/28 14:20:37;;;;;;;0.93;0.47;;;;;;;;;;5036313;28;20037;-80
2023/04/28 14:23:08;;;;;;;2.80;0.60;;;;;;;;;;5031143;28;20045;-81
2023/04/28 14:25:40;;;;;;;2.75;0.60;;;;;;;;;;5024358;28;20428;-81
2023/04/28 14:28:05;;;;;;;0.55;0.40;;;;;;;;;;5035248;28;20094;-81
2023/04/28 14:30:37;;;;;;;0.50;0.50;;;;;;;;;;5033660;28;20425;-82
2023/04/28 14:33:09;;;;;;;0.90;0.50;;;;;;;;;;5037901;28;20073;-79
2023/04/28 14:35:34;;;;;;;0.40;0.40;;;;;;;;;;5041292;28;20047;-81
2023/04/28 14:38:06;;;;;;;1.02;0.60;;;;;;;;;;5036210;28;20029;-81
2023/04/28 14:40:38;;;;;;;0.90;0.60;;;;;;;;;;5036902;28;20045;-80
2023/04/28 14:43:03;;;;;;;2.08;0.50;;;;;;;;;;5035382;28;20077;-81
2023/04/28 14:45:36;;;;;;;1.17;0.60;;;;;;;;;;5037850;28;20033;-81
2023/04/28 14:48:09;;;;;;;0.90;0.60;;;;;;;;;;5017570;28;20052;-80
2023/04/28 14:50:35;;;;;;;3.55;0.80;;;;;;;;;;5049993;28;20050;-81
2023/04/28 14:53:07;;;;;;;0.38;0.30;;;;;;;;;;5054421;28;20044;-82
2023/04/28 14:55:39;;;;;;;0.93;0.50;;;;;;;;;;5039416;28;20042;-81
2023/04/28 14:58:04;;;;;;;0.93;0.60;;;;;;;;;;5032879;28;20037;-80
2023/04/28 15:00:36;;;;;;;1.08;0.50;;;;;;;;;;5034838;28;20021;-80
2023/04/28 15:03:08;;;;;;;0.77;0.45;;;;;;;;;;5030881;28;20048;-80